Arethusa — 9HJR9 — position and weather

sailwx.info

Track history (hours):
 
Tides and Currents Weather Stations Pressure Air Temp Water Temp Dewpoint Dewpoint Depression Visibility Wind Speed Wind Dir Waves Ship Positions

Arethusa

Last reported at 2016-Jul-27 09:33 UTC. Time now 2016-Jul-27 09:37 UTC.
Position N 43°33' E 010°18'.

Length 60 m; draft 3 m.

Type: Passenger vessel. MMSI: 249069000.

Date/timePositionNaut miles runAvg speedWind from/ knotsBaromVisibWave heightAir tempDewpointWater temp
2016-Jul-27 09:33N 43°33' E 010°18'0 0.0
2016-Jul-27 08:33N 43°33' E 010°18'0 0.0
2016-Jul-27 07:33N 43°33' E 010°18'0 0.0
2016-Jul-27 06:33N 43°33' E 010°18'0 0.0
2016-Jul-27 05:33N 43°33' E 010°18'0 0.0
2016-Jul-27 04:33N 43°33' E 010°18'0 0.0
2016-Jul-27 03:33N 43°33' E 010°18'0 0.0
2016-Jul-27 02:33N 43°33' E 010°18'0 0.0
2016-Jul-27 01:33N 43°33' E 010°18'0 0.0
2016-Jul-27 00:33N 43°33' E 010°18'0 0.0
2016-Jul-26 23:33N 43°33' E 010°18'0 0.0
2016-Jul-26 22:33N 43°33' E 010°18'6 6.0
2016-Jul-26 21:34N 43°28' E 010°14'9 8.9
2016-Jul-26 20:33N 43°19' E 010°16'9 8.7
2016-Jul-26 19:34N 43°10' E 010°17'8 7.8
2016-Jul-26 18:34N 43°03' E 010°19'6 6.3
2016-Jul-26 17:34N 42°56' E 010°20'7 7.0
2016-Jul-26 16:34N 42°49' E 010°20'1 0.6
2016-Jul-26 15:08N 42°49' E 010°20'0 0.0
2016-Jul-26 14:23N 42°49' E 010°20'0 0.0
2016-Jul-26 10:32N 42°49' E 010°20'0 0.0
2016-Jul-26 09:34N 42°49' E 010°20'0 0.0
2016-Jul-26 08:33N 42°49' E 010°20'1 0.1
2016-Jul-25 21:32N 42°48' E 010°20'0 0.0
2016-Jul-25 20:32N 42°48' E 010°20'12 6.2
2016-Jul-25 18:33N 42°50' E 010°04'1311.1
2016-Jul-25 17:23N 42°46' E 009°47'27 1.8
2016-Jul-25 02:08N 43°13' E 009°39'610.1
2016-Jul-25 01:33N 43°19' E 009°41'1010.4
2016-Jul-25 00:33N 43°28' E 009°46'1010.2
2016-Jul-24 23:34N 43°38' E 009°51'10 9.9
2016-Jul-24 22:33N 43°47' E 009°55'1010.2
2016-Jul-24 21:34N 43°57' E 010°01'6 5.6
2016-Jul-24 20:33N 44°02' E 010°02'0 0.0
2016-Jul-24 19:34N 44°02' E 010°02'0 0.0
2016-Jul-24 18:33N 44°02' E 010°02'0 0.0
2016-Jul-24 17:33N 44°02' E 010°02'0 0.0
2016-Jul-24 16:33N 44°02' E 010°02'0 0.0
2016-Jul-24 15:34N 44°02' E 010°02'0 0.0
2016-Jul-24 14:34N 44°02' E 010°02'0 0.0
2016-Jul-24 13:33N 44°02' E 010°02'0 0.0
2016-Jul-24 12:34N 44°02' E 010°02'0 0.0
2016-Jul-24 11:34N 44°02' E 010°02'5 5.2
2016-Jul-24 10:34N 44°00' E 009°55'4 4.3
2016-Jul-24 09:33N 44°03' E 009°51'0 0.0
2016-Jul-24 08:33N 44°03' E 009°51'0 0.0
2016-Jul-24 07:33N 44°03' E 009°51'0 0.0
2016-Jul-24 06:33N 44°03' E 009°51'0 0.0
2016-Jul-24 05:33N 44°03' E 009°51'0 0.0
2016-Jul-24 04:33N 44°03' E 009°51'0 0.0
2016-Jul-24 03:33N 44°03' E 009°51'0 0.0
2016-Jul-24 02:33N 44°03' E 009°51'0 0.0
2016-Jul-24 01:33N 44°03' E 009°51'0 0.0
2016-Jul-24 00:33N 44°03' E 009°51'0 0.0
2016-Jul-23 23:33N 44°03' E 009°51'0 0.0
2016-Jul-23 22:33N 44°03' E 009°51'0 0.0
2016-Jul-23 21:34N 44°03' E 009°51'0 0.0
2016-Jul-23 20:33N 44°03' E 009°51'0 0.0
2016-Jul-23 19:33N 44°03' E 009°51'0 0.0
2016-Jul-23 18:33N 44°03' E 009°51'0 0.0
2016-Jul-23 17:34N 44°03' E 009°51'0 0.0
2016-Jul-23 16:34N 44°03' E 009°51'0 0.0
2016-Jul-23 15:33N 44°03' E 009°51'0 0.0
2016-Jul-23 14:33N 44°03' E 009°51'0 0.0
2016-Jul-23 13:33N 44°03' E 009°51'0 0.0
2016-Jul-23 12:33N 44°03' E 009°51'0 0.0
2016-Jul-23 11:33N 44°03' E 009°51'0 0.0
2016-Jul-23 10:33N 44°03' E 009°51'0 0.0
2016-Jul-23 09:34N 44°03' E 009°51'0 0.0
2016-Jul-23 08:34N 44°03' E 009°51'0 0.0
2016-Jul-23 07:34N 44°03' E 009°51'0 0.0
2016-Jul-23 06:34N 44°03' E 009°51'0 0.0
2016-Jul-23 04:34N 44°03' E 009°51'0 0.0
2016-Jul-23 03:34N 44°03' E 009°51'0 0.0
2016-Jul-23 02:33N 44°03' E 009°51'0 0.0
2016-Jul-23 01:33N 44°03' E 009°51'0 0.0
2016-Jul-23 00:33N 44°03' E 009°51'0 0.0
2016-Jul-22 23:33N 44°03' E 009°51'0 0.0
2016-Jul-22 22:33N 44°03' E 009°51'0 0.0
2016-Jul-22 21:33N 44°03' E 009°51'0 0.0
2016-Jul-22 20:33N 44°03' E 009°51'4 3.7
2016-Jul-22 19:33N 43°60' E 009°53'1211.6
2016-Jul-22 18:34N 44°04' E 009°38'1212.0
2016-Jul-22 17:33N 44°12' E 009°25'10 0.8
2016-Jul-22 04:33N 44°15' E 009°11'1111.1
2016-Jul-22 03:33N 44°09' E 008°58'1111.1
2016-Jul-22 02:33N 44°05' E 008°44'1211.0
2016-Jul-22 01:28N 43°59' E 008°29'5310.5
2016-Jul-21 20:24N 43°40' E 007°20'3 3.3
2016-Jul-21 19:32N 43°42' E 007°17'0 0.0
2016-Jul-21 18:20N 43°42' E 007°17'0 0.0
2016-Jul-21 17:32N 43°42' E 007°17'0 0.0
2016-Jul-21 15:14N 43°42' E 007°17'0 0.0
2016-Jul-21 14:26N 43°42' E 007°17'0 0.0
2016-Jul-21 13:32N 43°42' E 007°17'0 0.0
2016-Jul-21 11:20N 43°42' E 007°17'0 0.0
2016-Jul-21 10:08N 43°42' E 007°17'0 0.0
2016-Jul-21 09:26N 43°42' E 007°17'0 0.0
2016-Jul-21 08:32N 43°42' E 007°17'0 0.0
2016-Jul-21 07:32N 43°42' E 007°17'0 0.0
2016-Jul-21 06:26N 43°42' E 007°17'0 0.0
2016-Jul-21 05:34N 43°42' E 007°17'0 0.0
2016-Jul-21 04:33N 43°42' E 007°17'0 0.0
2016-Jul-21 03:31N 43°42' E 007°17'0 0.0
2016-Jul-21 02:33N 43°42' E 007°17'0 0.0
2016-Jul-21 01:34N 43°42' E 007°17'0 0.0
2016-Jul-21 00:31N 43°42' E 007°17'0 0.0
2016-Jul-20 23:34N 43°42' E 007°17'0 0.0
2016-Jul-20 22:21N 43°42' E 007°17'0 0.0
2016-Jul-20 21:31N 43°42' E 007°17'0 0.0
2016-Jul-20 20:33N 43°42' E 007°17'0 0.0
2016-Jul-20 19:33N 43°42' E 007°17'0 0.0
2016-Jul-20 18:33N 43°42' E 007°17'0 0.0
2016-Jul-20 17:34N 43°42' E 007°17'0 0.0
2016-Jul-20 16:34N 43°42' E 007°17'0 0.0
2016-Jul-20 15:34N 43°42' E 007°17'0 0.0
2016-Jul-20 14:15N 43°42' E 007°17'0 0.0
2016-Jul-20 13:27N 43°42' E 007°17'0 0.0
2016-Jul-20 12:33N 43°42' E 007°17'0 0.0
2016-Jul-20 11:34N 43°42' E 007°17'0 0.0
2016-Jul-20 10:34N 43°42' E 007°17'0 0.0
2016-Jul-20 09:34N 43°42' E 007°17'0 0.0
2016-Jul-20 08:34N 43°42' E 007°17'0 0.0
2016-Jul-20 07:33N 43°42' E 007°17'0 0.0
2016-Jul-20 06:34N 43°42' E 007°17'0 0.0
2016-Jul-20 05:33N 43°42' E 007°17'0 0.0
2016-Jul-20 04:33N 43°42' E 007°17'0 0.0
2016-Jul-20 03:33N 43°42' E 007°17'0 0.0
2016-Jul-20 02:33N 43°42' E 007°17'0 0.0
2016-Jul-20 01:34N 43°42' E 007°17'0 0.0
2016-Jul-20 00:34N 43°42' E 007°17'0 0.0
2016-Jul-19 23:33N 43°42' E 007°17'0 0.0
2016-Jul-19 22:33N 43°42' E 007°17'0 0.0
2016-Jul-19 21:33N 43°42' E 007°17'0 0.0
2016-Jul-19 20:34N 43°42' E 007°17'0 0.0
2016-Jul-19 16:33N 43°42' E 007°17'0 0.0
2016-Jul-19 15:33N 43°42' E 007°17'0 0.0
2016-Jul-19 14:33N 43°42' E 007°17'0 0.0
2016-Jul-19 13:33N 43°42' E 007°17'0 0.0
2016-Jul-19 12:33N 43°42' E 007°17'0 0.0
2016-Jul-19 11:30N 43°42' E 007°17'0 0.0
2016-Jul-19 10:34N 43°42' E 007°17'0 0.0
2016-Jul-19 09:29N 43°42' E 007°17'0 0.0
2016-Jul-19 08:33N 43°42' E 007°17'0 0.0
2016-Jul-19 07:33N 43°42' E 007°17'19 4.7
2016-Jul-19 03:33N 43°32' E 007°39'4210.4
2016-Jul-18 23:33N 43°19' E 008°34'1010.3
2016-Jul-18 22:33N 43°15' E 008°46'3310.3
2016-Jul-18 19:21N 43°01' E 009°28'19 2.4
2016-Jul-18 11:18N 42°42' E 009°27'19 1.3
2016-Jul-17 20:04N 42°48' E 009°52'6 8.4
2016-Jul-17 19:20N 42°49' E 010°00'11 9.2
2016-Jul-17 18:06N 42°52' E 010°15'5 0.9
2016-Jul-17 13:10N 42°49' E 010°20'  
Track history (hours):
 
Tides and Currents Weather Stations Pressure Air Temp Water Temp Dewpoint Dewpoint Depression Visibility Wind Speed Wind Dir Waves Ship Positions

Arethusa

Last reported at 2016-Jul-27 09:33 UTC. Time now 2016-Jul-27 09:37 UTC.
Position N 43°33' E 010°18'.

Length 60 m; draft 3 m.

Type: Passenger vessel. MMSI: 249069000.

Date/timePositionNaut miles runAvg speedWind from/ knotsBaromVisibWave heightAir tempDewpointWater temp
2016-Jul-27 09:33N 43°33' E 010°18'0 0.0
2016-Jul-27 08:33N 43°33' E 010°18'0 0.0
2016-Jul-27 07:33N 43°33' E 010°18'0 0.0
2016-Jul-27 06:33N 43°33' E 010°18'0 0.0
2016-Jul-27 05:33N 43°33' E 010°18'0 0.0
2016-Jul-27 04:33N 43°33' E 010°18'0 0.0
2016-Jul-27 03:33N 43°33' E 010°18'0 0.0
2016-Jul-27 02:33N 43°33' E 010°18'0 0.0
2016-Jul-27 01:33N 43°33' E 010°18'0 0.0
2016-Jul-27 00:33N 43°33' E 010°18'0 0.0
2016-Jul-26 23:33N 43°33' E 010°18'0 0.0
2016-Jul-26 22:33N 43°33' E 010°18'6 6.0
2016-Jul-26 21:34N 43°28' E 010°14'9 8.9
2016-Jul-26 20:33N 43°19' E 010°16'9 8.7
2016-Jul-26 19:34N 43°10' E 010°17'8 7.8
2016-Jul-26 18:34N 43°03' E 010°19'6 6.3
2016-Jul-26 17:34N 42°56' E 010°20'7 7.0
2016-Jul-26 16:34N 42°49' E 010°20'1 0.6
2016-Jul-26 15:08N 42°49' E 010°20'0 0.0
2016-Jul-26 14:23N 42°49' E 010°20'0 0.0
2016-Jul-26 10:32N 42°49' E 010°20'0 0.0
2016-Jul-26 09:34N 42°49' E 010°20'0 0.0
2016-Jul-26 08:33N 42°49' E 010°20'1 0.1
2016-Jul-25 21:32N 42°48' E 010°20'0 0.0
2016-Jul-25 20:32N 42°48' E 010°20'12 6.2
2016-Jul-25 18:33N 42°50' E 010°04'1311.1
2016-Jul-25 17:23N 42°46' E 009°47'27 1.8
2016-Jul-25 02:08N 43°13' E 009°39'610.1
2016-Jul-25 01:33N 43°19' E 009°41'1010.4
2016-Jul-25 00:33N 43°28' E 009°46'1010.2
2016-Jul-24 23:34N 43°38' E 009°51'10 9.9
2016-Jul-24 22:33N 43°47' E 009°55'1010.2
2016-Jul-24 21:34N 43°57' E 010°01'6 5.6
2016-Jul-24 20:33N 44°02' E 010°02'0 0.0
2016-Jul-24 19:34N 44°02' E 010°02'0 0.0
2016-Jul-24 18:33N 44°02' E 010°02'0 0.0
2016-Jul-24 17:33N 44°02' E 010°02'0 0.0
2016-Jul-24 16:33N 44°02' E 010°02'0 0.0
2016-Jul-24 15:34N 44°02' E 010°02'0 0.0
2016-Jul-24 14:34N 44°02' E 010°02'0 0.0
2016-Jul-24 13:33N 44°02' E 010°02'0 0.0
2016-Jul-24 12:34N 44°02' E 010°02'0 0.0
2016-Jul-24 11:34N 44°02' E 010°02'5 5.2
2016-Jul-24 10:34N 44°00' E 009°55'4 4.3
2016-Jul-24 09:33N 44°03' E 009°51'0 0.0
2016-Jul-24 08:33N 44°03' E 009°51'0 0.0
2016-Jul-24 07:33N 44°03' E 009°51'0 0.0
2016-Jul-24 06:33N 44°03' E 009°51'0 0.0
2016-Jul-24 05:33N 44°03' E 009°51'0 0.0
2016-Jul-24 04:33N 44°03' E 009°51'0 0.0
2016-Jul-24 03:33N 44°03' E 009°51'0 0.0
2016-Jul-24 02:33N 44°03' E 009°51'0 0.0
2016-Jul-24 01:33N 44°03' E 009°51'0 0.0
2016-Jul-24 00:33N 44°03' E 009°51'0 0.0
2016-Jul-23 23:33N 44°03' E 009°51'0 0.0
2016-Jul-23 22:33N 44°03' E 009°51'0 0.0
2016-Jul-23 21:34N 44°03' E 009°51'0 0.0
2016-Jul-23 20:33N 44°03' E 009°51'0 0.0
2016-Jul-23 19:33N 44°03' E 009°51'0 0.0
2016-Jul-23 18:33N 44°03' E 009°51'0 0.0
2016-Jul-23 17:34N 44°03' E 009°51'0 0.0
2016-Jul-23 16:34N 44°03' E 009°51'0 0.0
2016-Jul-23 15:33N 44°03' E 009°51'0 0.0
2016-Jul-23 14:33N 44°03' E 009°51'0 0.0
2016-Jul-23 13:33N 44°03' E 009°51'0 0.0
2016-Jul-23 12:33N 44°03' E 009°51'0 0.0
2016-Jul-23 11:33N 44°03' E 009°51'0 0.0
2016-Jul-23 10:33N 44°03' E 009°51'0 0.0
2016-Jul-23 09:34N 44°03' E 009°51'0 0.0
2016-Jul-23 08:34N 44°03' E 009°51'0 0.0
2016-Jul-23 07:34N 44°03' E 009°51'0 0.0
2016-Jul-23 06:34N 44°03' E 009°51'0 0.0
2016-Jul-23 04:34N 44°03' E 009°51'0 0.0
2016-Jul-23 03:34N 44°03' E 009°51'0 0.0
2016-Jul-23 02:33N 44°03' E 009°51'0 0.0
2016-Jul-23 01:33N 44°03' E 009°51'0 0.0
2016-Jul-23 00:33N 44°03' E 009°51'0 0.0
2016-Jul-22 23:33N 44°03' E 009°51'0 0.0
2016-Jul-22 22:33N 44°03' E 009°51'0 0.0
2016-Jul-22 21:33N 44°03' E 009°51'0 0.0
2016-Jul-22 20:33N 44°03' E 009°51'4 3.7
2016-Jul-22 19:33N 43°60' E 009°53'1211.6
2016-Jul-22 18:34N 44°04' E 009°38'1212.0
2016-Jul-22 17:33N 44°12' E 009°25'10 0.8
2016-Jul-22 04:33N 44°15' E 009°11'1111.1
2016-Jul-22 03:33N 44°09' E 008°58'1111.1
2016-Jul-22 02:33N 44°05' E 008°44'1211.0
2016-Jul-22 01:28N 43°59' E 008°29'5310.5
2016-Jul-21 20:24N 43°40' E 007°20'3 3.3
2016-Jul-21 19:32N 43°42' E 007°17'0 0.0
2016-Jul-21 18:20N 43°42' E 007°17'0 0.0
2016-Jul-21 17:32N 43°42' E 007°17'0 0.0
2016-Jul-21 15:14N 43°42' E 007°17'0 0.0
2016-Jul-21 14:26N 43°42' E 007°17'0 0.0
2016-Jul-21 13:32N 43°42' E 007°17'0 0.0
2016-Jul-21 11:20N 43°42' E 007°17'0 0.0
2016-Jul-21 10:08N 43°42' E 007°17'0 0.0
2016-Jul-21 09:26N 43°42' E 007°17'0 0.0
2016-Jul-21 08:32N 43°42' E 007°17'0 0.0
2016-Jul-21 07:32N 43°42' E 007°17'0 0.0
2016-Jul-21 06:26N 43°42' E 007°17'0 0.0
2016-Jul-21 05:34N 43°42' E 007°17'0 0.0
2016-Jul-21 04:33N 43°42' E 007°17'0 0.0
2016-Jul-21 03:31N 43°42' E 007°17'0 0.0
2016-Jul-21 02:33N 43°42' E 007°17'0 0.0
2016-Jul-21 01:34N 43°42' E 007°17'0 0.0
2016-Jul-21 00:31N 43°42' E 007°17'0 0.0
2016-Jul-20 23:34N 43°42' E 007°17'0 0.0
2016-Jul-20 22:21N 43°42' E 007°17'0 0.0
2016-Jul-20 21:31N 43°42' E 007°17'0 0.0
2016-Jul-20 20:33N 43°42' E 007°17'0 0.0
2016-Jul-20 19:33N 43°42' E 007°17'0 0.0
2016-Jul-20 18:33N 43°42' E 007°17'0 0.0
2016-Jul-20 17:34N 43°42' E 007°17'0 0.0
2016-Jul-20 16:34N 43°42' E 007°17'0 0.0
2016-Jul-20 15:34N 43°42' E 007°17'0 0.0
2016-Jul-20 14:15N 43°42' E 007°17'0 0.0
2016-Jul-20 13:27N 43°42' E 007°17'0 0.0
2016-Jul-20 12:33N 43°42' E 007°17'0 0.0
2016-Jul-20 11:34N 43°42' E 007°17'0 0.0
2016-Jul-20 10:34N 43°42' E 007°17'0 0.0
2016-Jul-20 09:34N 43°42' E 007°17'0 0.0
2016-Jul-20 08:34N 43°42' E 007°17'0 0.0
2016-Jul-20 07:33N 43°42' E 007°17'0 0.0
2016-Jul-20 06:34N 43°42' E 007°17'0 0.0
2016-Jul-20 05:33N 43°42' E 007°17'0 0.0
2016-Jul-20 04:33N 43°42' E 007°17'0 0.0
2016-Jul-20 03:33N 43°42' E 007°17'0 0.0
2016-Jul-20 02:33N 43°42' E 007°17'0 0.0
2016-Jul-20 01:34N 43°42' E 007°17'0 0.0
2016-Jul-20 00:34N 43°42' E 007°17'0 0.0
2016-Jul-19 23:33N 43°42' E 007°17'0 0.0
2016-Jul-19 22:33N 43°42' E 007°17'0 0.0
2016-Jul-19 21:33N 43°42' E 007°17'0 0.0
2016-Jul-19 20:34N 43°42' E 007°17'0 0.0
2016-Jul-19 16:33N 43°42' E 007°17'0 0.0
2016-Jul-19 15:33N 43°42' E 007°17'0 0.0
2016-Jul-19 14:33N 43°42' E 007°17'0 0.0
2016-Jul-19 13:33N 43°42' E 007°17'0 0.0
2016-Jul-19 12:33N 43°42' E 007°17'0 0.0
2016-Jul-19 11:30N 43°42' E 007°17'0 0.0
2016-Jul-19 10:34N 43°42' E 007°17'0 0.0
2016-Jul-19 09:29N 43°42' E 007°17'0 0.0
2016-Jul-19 08:33N 43°42' E 007°17'0 0.0
2016-Jul-19 07:33N 43°42' E 007°17'19 4.7
2016-Jul-19 03:33N 43°32' E 007°39'4210.4
2016-Jul-18 23:33N 43°19' E 008°34'1010.3
2016-Jul-18 22:33N 43°15' E 008°46'3310.3
2016-Jul-18 19:21N 43°01' E 009°28'19 2.4
2016-Jul-18 11:18N 42°42' E 009°27'19 1.3
2016-Jul-17 20:04N 42°48' E 009°52'6 8.4
2016-Jul-17 19:20N 42°49' E 010°00'11 9.2
2016-Jul-17 18:06N 42°52' E 010°15'5 0.9
2016-Jul-17 13:10N 42°49' E 010°20'  

Dump ship's entire track history